createdAt,value
2022-12-26T00:02:05.897Z,101278.63
2022-12-26T00:04:49.437Z,101273.75
2022-12-26T00:07:19.177Z,101279.28
2022-12-26T00:09:45.771Z,101274.63
2022-12-26T00:12:12.653Z,101281.66
2022-12-26T00:14:39.327Z,101273.75
2022-12-26T00:17:06.158Z,101268.09
2022-12-26T00:19:32.710Z,101267.44
2022-12-26T00:21:59.375Z,101272.63
2022-12-26T00:24:26.002Z,101261.69
2022-12-26T00:26:52.597Z,101261.72
2022-12-26T00:29:19.323Z,101269.38
2022-12-26T00:31:46.930Z,101266.25
2022-12-26T00:34:13.753Z,101269.94
2022-12-26T00:36:40.376Z,101281.31
2022-12-26T00:39:08.426Z,101287.50
2022-12-26T00:41:35.077Z,101288.34
2022-12-26T00:44:01.778Z,101289.34
2022-12-26T00:46:28.694Z,101286.34
2022-12-26T00:48:55.475Z,101298.72
2022-12-26T00:51:22.160Z,101294.38
2022-12-26T00:53:48.860Z,101300.72
2022-12-26T00:56:15.816Z,101286.69
2022-12-26T00:58:42.375Z,101296.41
2022-12-26T01:01:15.033Z,101297.22
2022-12-26T01:03:42.474Z,101298.72
2022-12-26T01:06:11.365Z,101306.59
2022-12-26T01:08:38.126Z,101288.53
2022-12-26T01:11:09.981Z,101285.53
2022-12-26T01:13:36.605Z,101282.53
2022-12-26T01:16:04.531Z,101296.38
2022-12-26T01:18:31.444Z,101306.59
2022-12-26T01:20:59.908Z,101307.63
2022-12-26T01:23:27.130Z,101298.25
2022-12-26T01:26:15.143Z,101312.63
2022-12-26T01:28:40.422Z,101292.22
2022-12-26T01:31:06.987Z,101300.25
2022-12-26T01:33:33.642Z,101295.56
2022-12-26T01:36:00.414Z,101321.63
2022-12-26T01:38:27.072Z,101325.47
2022-12-26T01:41:13.629Z,101320.97
2022-12-26T01:43:52.523Z,101326.31
2022-12-26T01:46:41.809Z,101318.31
2022-12-26T01:49:35.155Z,101308.09
2022-12-26T01:52:08.213Z,101309.91
2022-12-26T01:54:42.371Z,101310.44
2022-12-26T01:57:21.651Z,101310.44
2022-12-26T01:59:49.858Z,101312.25
2022-12-26T02:02:17.262Z,101316.28
2022-12-26T02:05:05.324Z,101319.28
2022-12-26T02:07:34.453Z,101320.94
2022-12-26T02:10:01.410Z,101318.13
2022-12-26T02:12:38.526Z,101312.09
2022-12-26T02:15:09.506Z,101325.81
2022-12-26T02:17:36.797Z,101333.81
2022-12-26T02:20:10.299Z,101341.84
2022-12-26T02:22:55.647Z,101344.19
2022-12-26T02:25:36.039Z,101336.50
2022-12-26T02:28:39.026Z,101329.81
2022-12-26T02:31:30.098Z,101309.44
2022-12-26T02:34:05.840Z,101301.44
2022-12-26T02:36:53.859Z,101309.78
2022-12-26T02:39:43.480Z,101313.25
2022-12-26T02:42:38.008Z,101296.41
2022-12-26T02:45:44.122Z,101303.75
2022-12-26T02:48:19.852Z,101314.75
2022-12-26T02:51:14.263Z,101308.41
2022-12-26T02:54:15.045Z,101300.91
2022-12-26T02:57:11.448Z,101342.66
2022-12-26T03:00:26.133Z,101315.13
2022-12-26T03:03:14.268Z,101317.59
2022-12-26T03:06:04.567Z,101305.25
2022-12-26T03:08:54.044Z,101306.59
2022-12-26T03:11:40.111Z,101307.09
2022-12-26T03:14:14.975Z,101295.03
2022-12-26T03:17:00.867Z,101295.56
2022-12-26T03:19:28.784Z,101313.59
2022-12-26T03:21:56.239Z,101315.59
2022-12-26T03:24:23.536Z,101313.94
2022-12-26T03:26:54.398Z,101314.25
2022-12-26T03:29:41.827Z,101315.94
2022-12-26T03:32:11.452Z,101313.44
2022-12-26T03:34:42.754Z,101316.94
2022-12-26T03:37:51.146Z,101312.59
2022-12-26T03:40:55.398Z,101297.56
2022-12-26T03:44:11.266Z,101300.91
2022-12-26T03:47:05.563Z,101321.78
2022-12-26T03:49:55.968Z,101322.63
2022-12-26T03:52:45.267Z,101326.13
2022-12-26T03:55:51.994Z,101304.56
2022-12-26T03:58:45.191Z,101328.28
2022-12-26T04:01:37.115Z,101317.59
2022-12-26T04:04:26.412Z,101337.59
2022-12-26T04:07:18.210Z,101328.59
2022-12-26T04:10:10.510Z,101337.75
2022-12-26T04:12:56.259Z,101338.97
2022-12-26T04:16:05.750Z,101340.09
2022-12-26T04:19:05.149Z,101332.09
2022-12-26T04:21:59.046Z,101350.44
2022-12-26T04:24:47.694Z,101358.78
2022-12-26T04:27:35.391Z,101362.47
2022-12-26T04:30:20.803Z,101353.78
2022-12-26T04:33:08.378Z,101352.13
2022-12-26T04:35:56.999Z,101347.78
2022-12-26T04:38:49.835Z,101354.63
2022-12-26T04:41:39.923Z,101344.97
2022-12-26T04:44:10.339Z,101345.78
2022-12-26T04:46:39.822Z,101347.13
2022-12-26T04:49:27.069Z,101351.47
2022-12-26T04:51:55.366Z,101359.66
2022-12-26T04:54:21.935Z,101364.16
2022-12-26T04:56:48.591Z,101376.34
2022-12-26T04:59:15.976Z,101369.50
2022-12-26T05:02:01.370Z,101362.47
2022-12-26T05:04:47.155Z,101370.66
2022-12-26T05:07:37.166Z,101369.66
2022-12-26T05:10:05.614Z,101375.16
2022-12-26T05:12:32.250Z,101385.72
2022-12-26T05:14:58.792Z,101385.03
2022-12-26T05:17:44.134Z,101378.00
2022-12-26T05:20:31.299Z,101390.34
2022-12-26T05:23:17.106Z,101394.16
2022-12-26T05:26:04.021Z,101399.13
2022-12-26T05:28:42.685Z,101411.25
2022-12-26T05:31:15.246Z,101405.91
2022-12-26T05:34:00.847Z,101394.75
2022-12-26T05:36:33.756Z,101396.72
2022-12-26T05:39:01.855Z,101397.06
2022-12-26T05:41:28.525Z,101402.91
2022-12-26T05:43:55.116Z,101394.53
2022-12-26T05:46:21.772Z,101406.75
2022-12-26T05:48:48.419Z,101401.91
2022-12-26T05:51:15.126Z,101415.44
2022-12-26T05:53:42.028Z,101416.25
2022-12-26T05:56:13.196Z,101413.94
2022-12-26T05:58:40.667Z,101419.09
2022-12-26T06:01:13.286Z,101421.47
2022-12-26T06:03:41.245Z,101420.25
2022-12-26T06:06:07.989Z,101417.59
2022-12-26T06:08:34.788Z,101421.94
2022-12-26T06:11:10.285Z,101422.78
2022-12-26T06:13:37.629Z,101428.81
2022-12-26T06:16:06.618Z,101424.66
2022-12-26T06:18:33.621Z,101419.00
2022-12-26T06:21:03.961Z,101424.81
2022-12-26T06:23:30.596Z,101426.81
2022-12-26T06:25:57.670Z,101435.00
2022-12-26T06:28:24.895Z,101434.78
2022-12-26T06:30:52.438Z,101426.91
2022-12-26T06:33:19.314Z,101415.22
2022-12-26T06:35:46.322Z,101408.88
2022-12-26T06:38:12.972Z,101425.25
2022-12-26T06:40:40.638Z,101424.84
2022-12-26T06:43:08.348Z,101419.22
2022-12-26T06:45:35.466Z,101417.06
2022-12-26T06:48:02.526Z,101411.19
2022-12-26T06:50:29.198Z,101404.19
2022-12-26T06:52:55.852Z,101396.50
2022-12-26T06:55:22.451Z,101401.81
2022-12-26T06:57:52.032Z,101415.03
2022-12-26T07:00:18.758Z,101413.84
2022-12-26T07:02:49.730Z,101422.72
2022-12-26T07:05:16.548Z,101408.84
2022-12-26T07:07:43.211Z,101401.00
2022-12-26T07:10:10.178Z,101402.00
2022-12-26T07:12:36.793Z,101404.63
2022-12-26T07:15:03.715Z,101402.00
2022-12-26T07:17:30.287Z,101405.97
2022-12-26T07:19:56.929Z,101403.09
2022-12-26T07:22:23.577Z,101407.13
2022-12-26T07:24:50.191Z,101425.66
2022-12-26T07:27:16.912Z,101432.63
2022-12-26T07:29:44.632Z,101439.22
2022-12-26T07:32:12.620Z,101436.19
2022-12-26T07:34:39.237Z,101457.63
2022-12-26T07:37:05.931Z,101462.78
2022-12-26T07:39:32.650Z,101478.16
2022-12-26T07:41:59.492Z,101482.19
2022-12-26T07:44:30.719Z,101490.88
2022-12-26T07:46:58.535Z,101499.06
2022-12-26T07:49:25.661Z,101501.78
2022-12-26T07:51:52.265Z,101493.09
2022-12-26T07:54:19.447Z,101484.41
2022-12-26T07:56:46.032Z,101485.84
2022-12-26T07:59:17.127Z,101488.84
2022-12-26T08:01:43.859Z,101478.47
2022-12-26T08:04:11.690Z,101483.00
2022-12-26T08:06:38.397Z,101482.78
2022-12-26T08:09:05.657Z,101478.19
2022-12-26T08:11:34.644Z,101485.44
2022-12-26T08:14:01.742Z,101485.50
2022-12-26T08:16:28.532Z,101478.66
2022-12-26T08:18:55.192Z,101474.00
2022-12-26T08:21:21.772Z,101475.44
2022-12-26T08:23:48.678Z,101475.88
2022-12-26T08:26:22.683Z,101477.91
2022-12-26T08:28:50.907Z,101481.78
2022-12-26T08:31:18.979Z,101479.31
2022-12-26T08:33:45.660Z,101476.44
2022-12-26T08:36:13.121Z,101475.81
2022-12-26T08:38:40.513Z,101469.59
2022-12-26T08:41:07.162Z,101490.84
2022-12-26T08:44:03.498Z,101486.06
2022-12-26T08:46:21.976Z,101491.72
2022-12-26T08:48:49.590Z,101502.09
2022-12-26T08:51:19.315Z,101507.78
2022-12-26T08:53:46.852Z,101511.81
2022-12-26T08:56:16.315Z,101507.63
2022-12-26T08:58:43.011Z,101503.28
2022-12-26T09:01:17.144Z,101502.53
2022-12-26T09:03:44.730Z,101496.47
2022-12-26T09:06:12.800Z,101496.16
2022-12-26T09:08:39.899Z,101492.13
2022-12-26T09:11:09.793Z,101499.38
2022-12-26T09:13:37.231Z,101495.19
2022-12-26T09:16:16.167Z,101491.22
2022-12-26T09:18:43.907Z,101486.84
2022-12-26T09:21:11.624Z,101478.84
2022-12-26T09:23:39.439Z,101482.56
2022-12-26T09:26:09.956Z,101487.94
2022-12-26T09:28:37.271Z,101498.63
2022-12-26T09:31:05.831Z,101488.97
2022-12-26T09:33:38.839Z,101496.47
2022-12-26T09:36:14.040Z,101492.38
2022-12-26T09:38:41.406Z,101484.34
2022-12-26T09:41:42.098Z,101480.53
2022-12-26T09:44:38.484Z,101474.53
2022-12-26T09:47:17.113Z,101467.69
2022-12-26T09:49:59.268Z,101460.28
2022-12-26T09:52:35.360Z,101445.41
2022-12-26T09:55:07.079Z,101451.75
2022-12-26T09:57:43.091Z,101440.41
2022-12-26T10:00:22.802Z,101432.75
2022-12-26T10:02:59.445Z,101421.03
2022-12-26T10:05:35.020Z,101415.34
2022-12-26T10:08:10.968Z,101411.53
2022-12-26T10:11:02.297Z,101400.81
2022-12-26T10:13:49.547Z,101391.16
2022-12-26T10:16:21.766Z,101385.28
2022-12-26T10:19:02.380Z,101376.75
2022-12-26T10:21:38.275Z,101371.25
2022-12-26T10:24:13.042Z,101353.19
2022-12-26T10:26:52.122Z,101348.88
2022-12-26T10:29:28.455Z,101330.00
2022-12-26T10:32:07.197Z,101317.97
2022-12-26T10:34:37.865Z,101306.41
2022-12-26T10:37:12.814Z,101289.91
2022-12-26T10:39:51.407Z,101284.19
2022-12-26T10:42:29.273Z,101268.19
2022-12-26T10:44:56.309Z,101264.16
2022-12-26T10:47:40.448Z,101277.56
2022-12-26T10:50:14.967Z,101255.28
2022-12-26T10:52:41.788Z,101262.63
2022-12-26T10:55:28.767Z,101256.94
2022-12-26T10:58:02.546Z,101252.38
2022-12-26T11:00:29.547Z,101221.09
2022-12-26T11:03:02.326Z,101232.59
2022-12-26T11:08:26.023Z,101189.53
2022-12-26T11:11:05.468Z,101171.13
2022-12-26T11:13:39.159Z,101153.47
2022-12-26T11:16:06.633Z,101126.28
2022-12-26T11:18:49.667Z,101098.94
2022-12-26T11:21:19.259Z,101089.41
2022-12-26T11:23:47.926Z,101070.38
2022-12-26T11:26:30.174Z,101044.56
2022-12-26T11:29:16.530Z,101039.13
2022-12-26T11:32:03.340Z,101012.97
2022-12-26T11:34:39.474Z,100992.66
2022-12-26T11:37:07.131Z,100979.63
2022-12-26T11:39:36.849Z,100960.78
2022-12-26T11:42:11.845Z,100938.94
2022-12-26T11:44:41.865Z,100925.06
2022-12-26T11:47:16.863Z,100902.56
2022-12-26T11:50:02.350Z,100876.69
2022-12-26T11:52:34.859Z,100850.84
2022-12-26T11:55:02.079Z,100850.75
2022-12-26T11:57:31.629Z,100828.69
2022-12-26T12:00:19.969Z,100808.22
2022-12-26T12:02:46.841Z,100789.97
2022-12-26T12:05:36.598Z,100780.94
2022-12-26T12:08:19.414Z,100760.06
2022-12-26T12:10:57.977Z,100739.91
2022-12-26T12:13:46.214Z,100700.78
2022-12-26T12:16:31.800Z,100680.69
2022-12-26T12:19:21.009Z,100655.16
2022-12-26T12:22:08.595Z,100630.09
2022-12-26T12:24:48.791Z,100607.75
2022-12-26T12:27:32.183Z,100592.63
2022-12-26T12:30:24.782Z,100567.50
2022-12-26T12:33:10.157Z,100547.41
2022-12-26T12:35:49.587Z,100522.06
2022-12-26T12:38:53.178Z,100501.56
2022-12-26T12:41:37.775Z,100493.97
2022-12-26T12:44:07.406Z,100472.16
2022-12-26T12:46:55.487Z,100452.69
2022-12-26T12:49:34.929Z,100455.34
2022-12-26T12:52:51.720Z,100421.03
2022-12-26T12:55:40.860Z,100427.97
2022-12-26T12:58:23.379Z,100431.34
2022-12-26T13:00:56.359Z,100448.53
2022-12-26T13:03:57.841Z,100459.81
2022-12-26T13:06:34.430Z,100481.41
2022-12-26T13:09:22.962Z,100485.38
2022-12-26T13:12:02.697Z,100520.53
2022-12-26T13:14:34.477Z,100522.59
2022-12-26T13:17:14.624Z,100549.53
2022-12-26T13:19:51.360Z,100556.50
2022-12-26T13:22:54.848Z,100566.44
2022-12-26T13:25:23.725Z,100572.66
2022-12-26T13:27:51.636Z,100573.66
2022-12-26T13:30:18.408Z,100566.94
2022-12-26T13:32:46.875Z,100587.31
2022-12-26T13:35:47.468Z,100618.16
2022-12-26T13:38:14.207Z,100640.00
2022-12-26T13:41:22.007Z,100675.66
2022-12-26T13:44:23.370Z,100694.78
2022-12-26T13:46:49.975Z,100704.84
2022-12-26T13:49:39.056Z,100697.94
2022-12-26T13:52:11.395Z,100700.63
2022-12-26T13:55:07.048Z,100689.69
2022-12-26T13:57:42.656Z,100678.56
2022-12-26T14:00:48.367Z,100658.56
2022-12-26T14:03:28.280Z,100618.00
2022-12-26T14:06:16.513Z,100580.09
2022-12-26T14:09:02.052Z,100640.78
2022-12-26T14:11:31.640Z,100622.50
2022-12-26T14:14:18.455Z,100587.44
2022-12-26T14:16:56.443Z,100570.44
2022-12-26T14:19:35.230Z,100585.06
2022-12-26T14:22:14.623Z,100575.09
2022-12-26T14:24:56.945Z,100575.09
2022-12-26T14:27:40.141Z,100547.03
2022-12-26T14:30:28.637Z,100513.16
2022-12-26T14:33:30.441Z,100494.88
2022-12-26T14:36:11.481Z,100470.63
2022-12-26T14:38:42.534Z,100437.72
2022-12-26T14:41:36.107Z,100408.31
2022-12-26T14:44:10.066Z,100356.78
2022-12-26T14:46:38.753Z,100333.56
2022-12-26T14:49:35.529Z,100315.25
2022-12-26T14:52:33.526Z,100264.44
2022-12-26T14:55:00.277Z,100230.91
2022-12-26T14:57:47.638Z,100200.66
2022-12-26T15:00:16.313Z,100173.13
2022-12-26T15:02:45.226Z,100151.41
2022-12-26T15:05:16.326Z,100123.41
2022-12-26T15:08:20.545Z,100126.19
2022-12-26T15:11:08.191Z,100104.03
2022-12-26T15:13:55.643Z,100089.31
2022-12-26T15:16:26.999Z,100094.97
2022-12-26T15:19:25.038Z,100077.69
2022-12-26T15:22:16.090Z,100061.16
2022-12-26T15:27:59.417Z,100037.00
2022-12-26T15:31:00.185Z,100030.38
2022-12-26T15:33:39.416Z,100011.84
2022-12-26T15:36:22.020Z,100009.53
2022-12-26T15:38:54.047Z,100002.06
2022-12-26T15:41:47.106Z,100001.63
2022-12-26T15:44:21.052Z,99997.34
2022-12-26T15:47:06.294Z,100001.97
2022-12-26T15:50:04.066Z,99998.00
2022-12-26T15:52:50.959Z,100004.16
2022-12-26T15:55:17.551Z,100013.13
2022-12-26T15:58:22.542Z,100024.53
2022-12-26T16:00:53.638Z,100025.69
2022-12-26T16:03:29.645Z,100025.53
2022-12-26T16:06:17.568Z,100026.16
2022-12-26T16:09:13.965Z,100014.38
2022-12-26T16:11:54.718Z,100010.06
2022-12-26T16:14:29.013Z,100004.44
2022-12-26T16:17:10.352Z,100000.13
2022-12-26T16:19:37.761Z,100005.44
2022-12-26T16:22:25.512Z,100003.31
2022-12-26T16:24:53.809Z,99998.50
2022-12-26T16:27:22.977Z,100000.31
2022-12-26T16:29:52.897Z,100001.81
2022-12-26T16:32:21.665Z,100001.50
2022-12-26T16:34:49.383Z,100001.34
2022-12-26T16:37:21.776Z,99997.38
2022-12-26T16:40:08.364Z,99995.25
2022-12-26T16:42:35.074Z,99995.56
2022-12-26T16:45:01.825Z,99998.22
2022-12-26T16:47:30.863Z,99994.09
2022-12-26T16:49:59.254Z,99997.06
2022-12-26T16:52:45.858Z,100005.81
2022-12-26T16:55:22.373Z,100013.63
2022-12-26T16:57:52.919Z,100025.06
2022-12-26T17:00:21.658Z,100027.03
2022-12-26T17:02:50.406Z,100029.16
2022-12-26T17:05:27.629Z,100037.66
2022-12-26T17:07:56.125Z,100034.34
2022-12-26T17:10:25.674Z,100048.59
2022-12-26T17:12:53.270Z,100044.97
2022-12-26T17:15:23.158Z,100045.63
2022-12-26T17:17:49.971Z,100036.69
2022-12-26T17:20:37.207Z,100040.31
2022-12-26T17:23:31.222Z,100039.94
2022-12-26T17:26:17.341Z,100043.09
2022-12-26T17:28:44.020Z,100043.09
2022-12-26T17:31:19.115Z,100050.91
2022-12-26T17:33:48.226Z,100060.03
2022-12-26T17:39:17.491Z,100077.78
2022-12-26T17:41:51.005Z,100073.94
2022-12-26T17:44:32.927Z,100063.16
2022-12-26T17:47:02.906Z,100058.69
2022-12-26T17:49:29.563Z,100056.88
2022-12-26T17:52:01.710Z,100057.56
2022-12-26T17:54:28.829Z,100050.56
2022-12-26T17:56:55.545Z,100053.91
2022-12-26T17:59:22.352Z,100056.38
2022-12-26T18:01:49.172Z,100057.22
2022-12-26T18:04:15.855Z,100058.03
2022-12-26T18:06:42.587Z,100056.69
2022-12-26T18:09:24.523Z,100068.31
2022-12-26T18:11:51.185Z,100067.75
2022-12-26T18:14:17.936Z,100068.63
2022-12-26T18:16:44.783Z,100068.31
2022-12-26T18:19:16.042Z,100070.31
2022-12-26T18:21:42.787Z,100077.44
2022-12-26T18:24:09.676Z,100080.25
2022-12-26T18:26:36.690Z,100085.41
2022-12-26T18:29:03.453Z,100096.50
2022-12-26T18:31:31.614Z,100093.84
2022-12-26T18:33:58.390Z,100095.50
2022-12-26T18:36:32.239Z,100094.84
2022-12-26T18:38:59.028Z,100099.31
2022-12-26T18:41:25.960Z,100100.00
2022-12-26T18:43:52.936Z,100100.16
2022-12-26T18:46:24.756Z,100108.09
2022-12-26T18:48:56.758Z,100103.47
2022-12-26T18:51:24.454Z,100091.00
2022-12-26T18:53:51.272Z,100103.75
2022-12-26T18:56:20.551Z,100100.59
2022-12-26T18:58:53.910Z,100099.91
2022-12-26T19:01:24.125Z,100102.19
2022-12-26T19:03:51.322Z,100060.66
2022-12-26T19:06:27.245Z,100062.31
2022-12-26T19:08:54.215Z,100074.75
2022-12-26T19:11:20.909Z,100076.72
2022-12-26T19:13:47.695Z,100090.41
2022-12-26T19:16:15.457Z,100099.81
2022-12-26T19:18:42.121Z,100100.19
2022-12-26T19:21:13.330Z,100106.97
2022-12-26T19:23:40.402Z,100107.97
2022-12-26T19:26:12.223Z,100112.78
2022-12-26T19:28:39.454Z,100112.13
2022-12-26T19:31:10.538Z,100116.41
2022-12-26T19:33:37.545Z,100125.91
2022-12-26T19:36:05.599Z,100124.13
2022-12-26T19:38:32.253Z,100141.78
2022-12-26T19:41:04.382Z,100153.03
2022-12-26T19:43:31.493Z,100155.34
2022-12-26T19:46:00.433Z,100169.09
2022-12-26T19:48:27.250Z,100182.09
2022-12-26T19:50:53.872Z,100193.00
2022-12-26T19:53:20.540Z,100199.91
2022-12-26T19:55:47.200Z,100207.84
2022-12-26T19:58:13.840Z,100215.50
2022-12-26T20:00:40.472Z,100221.22
2022-12-26T20:03:07.185Z,100233.25
2022-12-26T20:05:37.112Z,100240.03
2022-12-26T20:08:04.031Z,100254.25
2022-12-26T20:10:30.814Z,100261.75
2022-12-26T20:12:57.492Z,100269.94
2022-12-26T20:15:24.125Z,100281.56
2022-12-26T20:17:52.641Z,100289.63
2022-12-26T20:20:20.319Z,100298.19
2022-12-26T20:22:52.835Z,100306.13
2022-12-26T20:25:19.917Z,100318.97
2022-12-26T20:27:46.480Z,100312.63
2022-12-26T20:30:13.210Z,100322.69
2022-12-26T20:32:44.028Z,100330.25
2022-12-26T20:35:10.629Z,100335.00
2022-12-26T20:37:37.362Z,100334.41
2022-12-26T20:40:04.383Z,100347.31
2022-12-26T20:42:31.160Z,100353.97
2022-12-26T20:44:57.836Z,100359.56
2022-12-26T20:47:24.477Z,100368.69
2022-12-26T20:49:51.146Z,100373.69
2022-12-26T20:52:18.576Z,100379.72
2022-12-26T20:54:45.986Z,100384.22
2022-12-26T20:57:12.623Z,100396.47
2022-12-26T20:59:39.304Z,100400.34
2022-12-26T21:02:06.559Z,100388.53
2022-12-26T21:04:33.488Z,100401.53
2022-12-26T21:07:00.251Z,100405.81
2022-12-26T21:09:26.935Z,100415.72
2022-12-26T21:11:53.523Z,100408.59
2022-12-26T21:14:21.351Z,100418.06
2022-12-26T21:16:53.475Z,100425.13
2022-12-26T21:19:22.803Z,100422.97
2022-12-26T21:21:52.424Z,100425.91
2022-12-26T21:24:21.335Z,100430.59
2022-12-26T21:26:48.451Z,100441.56
2022-12-26T21:29:19.764Z,100441.47
2022-12-26T21:31:47.163Z,100443.06
2022-12-26T21:34:15.621Z,100440.88
2022-12-26T21:37:03.113Z,100448.03
2022-12-26T21:39:30.347Z,100446.78
2022-12-26T21:41:57.004Z,100451.75
2022-12-26T21:44:23.873Z,100460.25
2022-12-26T21:46:50.500Z,100464.84
2022-12-26T21:49:17.173Z,100469.00
2022-12-26T21:51:43.794Z,100475.38
2022-12-26T21:54:29.029Z,100468.97
2022-12-26T21:56:55.771Z,100476.47
2022-12-26T21:59:40.850Z,100477.03
2022-12-26T22:02:29.013Z,100475.50
2022-12-26T22:04:55.869Z,100480.34
2022-12-26T22:07:22.522Z,100476.69
2022-12-26T22:09:49.230Z,100472.31
2022-12-26T22:12:34.476Z,100475.81
2022-12-26T22:15:01.144Z,100466.50
2022-12-26T22:17:27.784Z,100466.13
2022-12-26T22:19:54.377Z,100464.16
2022-12-26T22:22:21.075Z,100465.19
2022-12-26T22:24:47.728Z,100463.00
2022-12-26T22:27:14.407Z,100469.16
2022-12-26T22:29:42.351Z,100468.59
2022-12-26T22:32:09.022Z,100473.63
2022-12-26T22:34:35.752Z,100463.38
2022-12-26T22:37:02.449Z,100467.69
2022-12-26T22:39:29.113Z,100468.38
2022-12-26T22:42:02.018Z,100475.91
2022-12-26T22:44:29.106Z,100480.22
2022-12-26T22:46:57.832Z,100468.28
2022-12-26T22:49:24.531Z,100479.38
2022-12-26T22:51:51.217Z,100481.78
2022-12-26T22:54:17.880Z,100490.25
2022-12-26T22:56:44.531Z,100498.03
2022-12-26T22:59:13.659Z,100496.53
2022-12-26T23:01:45.268Z,100497.22
2022-12-26T23:04:12.950Z,100497.91
2022-12-26T23:06:41.379Z,100496.81
2022-12-26T23:09:13.669Z,100503.75
2022-12-26T23:11:40.723Z,100497.22
2022-12-26T23:14:08.744Z,100497.63
2022-12-26T23:16:42.958Z,100509.03
2022-12-26T23:19:32.682Z,100508.06
2022-12-26T23:22:01.113Z,100507.78
2022-12-26T23:24:30.067Z,100506.25
2022-12-26T23:27:19.216Z,100501.25
2022-12-26T23:30:04.527Z,100507.50
2022-12-26T23:32:31.151Z,100508.19
2022-12-26T23:34:57.799Z,100514.59
2022-12-26T23:37:24.443Z,100507.09
2022-12-26T23:39:51.080Z,100511.53
2022-12-26T23:42:17.696Z,100517.22
2022-12-26T23:44:44.330Z,100509.16
2022-12-26T23:47:11.014Z,100509.00
2022-12-26T23:49:37.654Z,100498.16
2022-12-26T23:52:04.457Z,100497.47
2022-12-26T23:54:31.242Z,100482.53
2022-12-26T23:56:57.904Z,100468.59
2022-12-26T23:59:24.886Z,100464.56
